createdAt,value
2023-03-17T00:04:32.026Z,23.80
2023-03-17T00:09:56.220Z,19.60
2023-03-17T00:15:24.232Z,17.30
2023-03-17T00:20:48.797Z,19.80
2023-03-17T00:26:13.474Z,26.70
2023-03-17T00:31:40.630Z,20.00
2023-03-17T00:37:04.940Z,20.50
2023-03-17T00:42:29.802Z,21.00
2023-03-17T00:47:56.420Z,24.00
2023-03-17T00:53:24.605Z,21.10
2023-03-17T00:58:49.880Z,19.20
2023-03-17T01:04:14.620Z,18.30
2023-03-17T01:09:38.513Z,20.50
2023-03-17T01:15:03.035Z,16.40
2023-03-17T01:20:31.962Z,19.50
2023-03-17T01:25:56.749Z,17.30
2023-03-17T01:31:23.569Z,20.60
2023-03-17T01:36:48.922Z,14.90
2023-03-17T01:42:13.956Z,19.60
2023-03-17T01:47:38.334Z,17.20
2023-03-17T01:53:02.188Z,20.60
2023-03-17T01:58:27.082Z,22.20
2023-03-17T02:03:52.586Z,20.40
2023-03-17T02:09:17.832Z,21.10
2023-03-17T02:14:42.237Z,20.40
2023-03-17T02:20:18.771Z,17.60
2023-03-17T02:25:47.794Z,19.60
2023-03-17T02:31:12.987Z,19.60
2023-03-17T02:36:37.817Z,18.60
2023-03-17T02:42:04.089Z,22.60
2023-03-17T02:47:27.993Z,21.80
2023-03-17T02:52:52.623Z,24.50
2023-03-17T02:58:16.921Z,23.00
2023-03-17T03:03:41.077Z,23.10
2023-03-17T03:09:06.151Z,21.90
2023-03-17T03:14:30.981Z,24.30
2023-03-17T03:19:55.037Z,24.80
2023-03-17T03:25:19.106Z,17.00
2023-03-17T03:30:44.848Z,16.70
2023-03-17T03:36:09.311Z,20.40
2023-03-17T03:41:33.950Z,18.10
2023-03-17T03:46:59.277Z,19.40
2023-03-17T03:52:23.819Z,21.50
2023-03-17T03:57:48.244Z,33.40
2023-03-17T04:03:13.247Z,25.90
2023-03-17T04:08:37.989Z,26.10
2023-03-17T04:14:02.547Z,31.50
2023-03-17T04:19:27.890Z,32.30
2023-03-17T04:24:52.497Z,26.90
2023-03-17T04:30:17.235Z,30.50
2023-03-17T04:35:41.814Z,21.20
2023-03-17T04:41:06.649Z,20.70
2023-03-17T04:46:31.355Z,23.80
2023-03-17T04:51:56.125Z,18.00
2023-03-17T04:57:20.422Z,22.50
2023-03-17T05:02:45.222Z,12.80
2023-03-17T05:08:09.191Z,17.80
2023-03-17T05:13:33.604Z,15.60
2023-03-17T05:18:58.809Z,15.10
2023-03-17T05:24:24.174Z,15.50
2023-03-17T05:29:49.133Z,15.70
2023-03-17T05:35:13.952Z,14.90
2023-03-17T05:40:38.465Z,14.70
2023-03-17T05:46:03.038Z,15.50
2023-03-17T05:51:28.275Z,17.30
2023-03-17T05:56:53.665Z,11.50
2023-03-17T06:02:18.574Z,13.60
2023-03-17T06:07:52.912Z,16.90
2023-03-17T06:13:19.463Z,18.50
2023-03-17T06:19:58.055Z,16.80
2023-03-17T06:25:23.455Z,16.50
2023-03-17T06:30:48.143Z,20.50
2023-03-17T06:36:12.929Z,12.00
2023-03-17T06:41:36.944Z,13.80
2023-03-17T06:47:01.149Z,8.70
2023-03-17T06:52:25.773Z,13.20
2023-03-17T06:57:51.553Z,13.80
2023-03-17T07:03:17.259Z,10.10
2023-03-17T07:08:41.830Z,9.60
2023-03-17T07:14:06.700Z,10.30
2023-03-17T07:19:31.609Z,11.90
2023-03-17T07:24:56.188Z,10.70
2023-03-17T07:30:21.132Z,8.30
2023-03-17T07:35:46.158Z,8.00
2023-03-17T07:41:11.300Z,11.70
2023-03-17T07:46:35.617Z,9.30
2023-03-17T07:51:59.824Z,13.50
2023-03-17T07:57:25.040Z,7.20
2023-03-17T08:03:06.981Z,6.40
2023-03-17T08:08:34.413Z,10.50
2023-03-17T08:13:58.787Z,8.40
2023-03-17T08:19:24.574Z,6.60
2023-03-17T08:24:49.228Z,8.20
2023-03-17T08:30:13.869Z,6.70
2023-03-17T08:35:42.336Z,5.60
2023-03-17T08:41:10.071Z,7.70
2023-03-17T08:46:35.436Z,5.70
2023-03-17T08:52:00.407Z,4.00
2023-03-17T08:57:25.089Z,3.60
2023-03-17T09:02:49.327Z,8.80
2023-03-17T09:08:13.672Z,5.40
2023-03-17T09:13:39.606Z,7.70
2023-03-17T09:19:04.663Z,4.80
2023-03-17T09:24:29.196Z,7.20
2023-03-17T09:29:53.111Z,5.10
2023-03-17T09:35:17.807Z,9.50
2023-03-17T09:40:49.955Z,5.90
2023-03-17T09:46:27.314Z,3.60
2023-03-17T09:51:52.543Z,3.70
2023-03-17T09:57:32.740Z,4.60
2023-03-17T10:02:58.375Z,5.30
2023-03-17T10:08:32.585Z,4.30
2023-03-17T10:14:52.983Z,2.40
2023-03-17T10:20:25.936Z,3.90
2023-03-17T10:25:50.406Z,3.70
2023-03-17T10:31:29.150Z,2.80
2023-03-17T10:37:07.019Z,5.70
2023-03-17T10:42:36.030Z,7.00
2023-03-17T10:48:04.770Z,5.00
2023-03-17T10:53:38.855Z,4.40
2023-03-17T11:10:30.500Z,4.00
2023-03-17T11:16:07.793Z,4.80
2023-03-17T11:21:55.243Z,2.80
2023-03-17T11:27:36.132Z,5.00
2023-03-17T11:33:28.384Z,6.00
2023-03-17T11:39:06.112Z,4.20
2023-03-17T11:45:06.924Z,5.10
2023-03-17T11:50:39.656Z,6.40
2023-03-17T11:56:14.284Z,6.00
2023-03-17T12:01:51.518Z,3.00
2023-03-17T12:07:23.830Z,4.40
2023-03-17T12:12:56.896Z,7.30
2023-03-17T12:18:33.106Z,7.00
2023-03-17T12:24:27.224Z,4.40
2023-03-17T12:30:17.999Z,6.30
2023-03-17T12:35:43.569Z,7.30
2023-03-17T12:41:21.231Z,6.30
2023-03-17T12:47:06.553Z,5.30
2023-03-17T12:52:37.949Z,6.60
2023-03-17T12:58:20.454Z,6.60
2023-03-17T13:04:06.074Z,6.50
2023-03-17T13:09:43.579Z,6.30
2023-03-17T13:15:31.168Z,5.20
2023-03-17T13:21:01.357Z,10.00
2023-03-17T13:27:04.750Z,8.40
2023-03-17T13:32:34.050Z,8.30
2023-03-17T13:38:14.224Z,6.80
2023-03-17T13:43:45.159Z,7.10
2023-03-17T13:49:30.276Z,9.70
2023-03-17T13:55:24.210Z,5.40
2023-03-17T14:00:56.096Z,6.10
2023-03-17T14:06:28.381Z,6.60
2023-03-17T14:11:53.857Z,6.80
2023-03-17T14:17:30.595Z,10.20
2023-03-17T14:22:59.361Z,6.70
2023-03-17T14:28:29.231Z,6.70
2023-03-17T14:33:57.277Z,5.70
2023-03-17T14:39:26.643Z,6.00
2023-03-17T14:45:01.941Z,10.40
2023-03-17T14:50:31.632Z,8.30
2023-03-17T14:55:56.867Z,6.90
2023-03-17T15:01:35.525Z,12.60
2023-03-17T15:07:03.317Z,6.70
2023-03-17T15:12:29.380Z,7.30
2023-03-17T15:17:57.795Z,7.30
2023-03-17T15:23:41.506Z,7.30
2023-03-17T15:29:06.238Z,8.50
2023-03-17T15:34:30.979Z,8.80
2023-03-17T15:39:56.758Z,10.80
2023-03-17T15:45:22.724Z,8.30
2023-03-17T15:50:49.647Z,13.50
2023-03-17T15:56:20.802Z,13.20
2023-03-17T16:01:45.670Z,11.00
2023-03-17T16:07:13.471Z,7.80
2023-03-17T16:12:37.537Z,11.00
2023-03-17T16:18:05.001Z,9.30
2023-03-17T16:23:34.413Z,8.90
2023-03-17T16:29:00.942Z,9.90
2023-03-17T16:34:26.217Z,14.40
2023-03-17T16:39:52.739Z,10.00
2023-03-17T16:45:22.444Z,9.20
2023-03-17T16:50:46.608Z,9.60
2023-03-17T16:56:15.825Z,10.50
2023-03-17T17:01:41.269Z,14.60
2023-03-17T17:07:06.108Z,10.70
2023-03-17T17:12:30.825Z,9.80
2023-03-17T17:17:58.820Z,11.60
2023-03-17T17:23:26.692Z,11.20
2023-03-17T17:28:51.735Z,13.00
2023-03-17T17:34:16.827Z,12.90
2023-03-17T17:39:41.089Z,16.00
2023-03-17T17:45:05.342Z,10.40
2023-03-17T17:50:30.750Z,14.50
2023-03-17T17:55:55.938Z,14.10
2023-03-17T18:01:23.128Z,18.00
2023-03-17T18:06:48.068Z,25.80
2023-03-17T18:12:12.209Z,22.40
2023-03-17T18:17:36.684Z,24.40
2023-03-17T18:23:01.361Z,28.90
2023-03-17T18:28:25.487Z,30.90
2023-03-17T18:33:52.346Z,30.00
2023-03-17T18:39:17.463Z,31.10
2023-03-17T18:44:42.052Z,38.70
2023-03-17T18:50:09.583Z,29.20
2023-03-17T18:55:33.861Z,29.20
2023-03-17T19:00:59.960Z,34.60
2023-03-17T19:06:24.811Z,33.90
2023-03-17T19:11:49.713Z,30.90
2023-03-17T19:17:14.117Z,27.90
2023-03-17T19:22:38.367Z,31.60
2023-03-17T19:28:03.743Z,26.80
2023-03-17T19:33:29.196Z,32.70
2023-03-17T19:38:53.394Z,32.20
2023-03-17T19:44:18.175Z,26.40
2023-03-17T19:49:42.568Z,32.90
2023-03-17T19:55:08.486Z,33.80
2023-03-17T20:00:34.496Z,41.50
2023-03-17T20:05:58.589Z,40.10
2023-03-17T20:11:24.358Z,29.60
2023-03-17T20:16:50.947Z,31.10
2023-03-17T20:22:14.966Z,34.30
2023-03-17T20:27:40.488Z,29.10
2023-03-17T20:33:07.013Z,37.00
2023-03-17T20:38:33.591Z,38.10
2023-03-17T20:43:58.378Z,41.20
2023-03-17T20:49:23.947Z,42.70
2023-03-17T20:54:48.852Z,42.20
2023-03-17T21:00:18.117Z,45.50
2023-03-17T21:05:42.688Z,36.20
2023-03-17T21:11:08.431Z,46.00
2023-03-17T21:16:33.233Z,47.10
2023-03-17T21:21:58.995Z,40.70
2023-03-17T21:27:23.390Z,35.60
2023-03-17T21:32:47.638Z,30.60
2023-03-17T21:38:12.063Z,32.80
2023-03-17T21:43:36.197Z,32.60
2023-03-17T21:49:01.939Z,31.70
2023-03-17T21:54:27.402Z,27.10
2023-03-17T21:59:51.320Z,29.50
2023-03-17T22:05:15.181Z,29.80
2023-03-17T22:10:40.763Z,31.30
2023-03-17T22:16:05.357Z,26.20
2023-03-17T22:21:32.260Z,28.90
2023-03-17T22:26:56.978Z,33.50
2023-03-17T22:32:20.981Z,28.90
2023-03-17T22:37:45.290Z,29.70
2023-03-17T22:43:09.471Z,35.40
2023-03-17T22:48:36.178Z,38.00
2023-03-17T22:54:00.572Z,33.80
2023-03-17T22:59:25.311Z,33.10
2023-03-17T23:04:50.410Z,37.50
2023-03-17T23:10:16.314Z,38.60
2023-03-17T23:15:40.777Z,34.20
2023-03-17T23:21:07.074Z,34.50
2023-03-17T23:26:33.290Z,26.10
2023-03-17T23:31:58.088Z,33.40
2023-03-17T23:37:22.564Z,28.90
2023-03-17T23:42:49.299Z,31.10
2023-03-17T23:48:13.415Z,35.30
2023-03-17T23:53:39.807Z,44.60
2023-03-17T23:59:04.854Z,40.00
